createdAt,value
2023-03-29T00:01:00.192Z,2.25
2023-03-29T00:02:02.505Z,2.20
2023-03-29T00:03:04.421Z,1.95
2023-03-29T00:04:06.462Z,1.92
2023-03-29T00:05:09.593Z,1.90
2023-03-29T00:07:16.562Z,1.70
2023-03-29T00:08:18.520Z,2.00
2023-03-29T00:09:20.669Z,2.00
2023-03-29T00:10:24.124Z,1.80
2023-03-29T00:11:26.446Z,1.80
2023-03-29T00:12:28.632Z,2.03
2023-03-29T00:13:30.734Z,1.90
2023-03-29T00:14:32.312Z,2.20
2023-03-29T00:15:33.851Z,2.22
2023-03-29T00:16:37.393Z,5.78
2023-03-29T00:17:39.243Z,5.70
2023-03-29T00:18:41.072Z,3.78
2023-03-29T00:19:46.673Z,2.50
2023-03-29T00:20:55.907Z,2.03
2023-03-29T00:21:57.394Z,1.88
2023-03-29T00:22:58.936Z,1.90
2023-03-29T00:24:00.443Z,2.40
2023-03-29T00:25:01.901Z,2.40
2023-03-29T00:26:05.894Z,1.90
2023-03-29T00:27:08.719Z,2.50
2023-03-29T00:28:10.223Z,1.95
2023-03-29T00:29:11.857Z,2.20
2023-03-29T00:30:13.964Z,2.17
2023-03-29T00:31:17.406Z,2.10
2023-03-29T00:32:18.953Z,2.10
2023-03-29T00:33:20.679Z,2.00
2023-03-29T00:34:42.850Z,2.10
2023-03-29T00:35:44.824Z,2.35
2023-03-29T00:36:50.855Z,2.45
2023-03-29T00:37:52.963Z,2.15
2023-03-29T00:38:56.261Z,2.17
2023-03-29T00:39:58.279Z,2.50
2023-03-29T00:40:59.946Z,2.60
2023-03-29T00:42:02.753Z,2.33
2023-03-29T00:43:06.269Z,2.30
2023-03-29T00:44:46.304Z,2.80
2023-03-29T00:45:47.888Z,2.30
2023-03-29T00:46:49.563Z,2.40
2023-03-29T00:47:57.053Z,2.53
2023-03-29T00:49:05.812Z,2.78
2023-03-29T00:50:16.923Z,2.50
2023-03-29T00:51:20.894Z,2.17
2023-03-29T00:52:22.734Z,2.40
2023-03-29T00:53:29.949Z,2.45
2023-03-29T00:54:33.430Z,2.70
2023-03-29T00:55:43.177Z,2.53
2023-03-29T00:56:50.043Z,2.20
2023-03-29T00:57:53.682Z,2.10
2023-03-29T00:59:25.278Z,2.30
2023-03-29T01:00:33.402Z,2.30
2023-03-29T01:01:55.102Z,2.45
2023-03-29T01:03:01.187Z,2.33
2023-03-29T01:04:09.499Z,2.35
2023-03-29T01:05:17.523Z,2.22
2023-03-29T01:06:21.698Z,2.55
2023-03-29T01:07:32.671Z,3.10
2023-03-29T01:08:43.948Z,2.92
2023-03-29T01:09:50.799Z,2.30
2023-03-29T01:11:17.680Z,2.58
2023-03-29T01:12:35.926Z,2.80
2023-03-29T01:13:41.952Z,2.40
2023-03-29T01:14:54.310Z,2.50
2023-03-29T01:15:57.476Z,2.10
2023-03-29T01:16:59.419Z,2.60
2023-03-29T01:18:02.109Z,2.40
2023-03-29T01:19:05.336Z,2.30
2023-03-29T01:20:25.573Z,2.40
2023-03-29T01:21:39.836Z,2.42
2023-03-29T01:22:53.198Z,2.30
2023-03-29T01:24:20.545Z,2.25
2023-03-29T01:26:04.035Z,2.67
2023-03-29T01:27:15.718Z,2.22
2023-03-29T01:28:29.099Z,2.15
2023-03-29T01:29:33.287Z,2.25
2023-03-29T01:30:48.419Z,2.40
2023-03-29T01:31:54.712Z,2.15
2023-03-29T01:33:10.712Z,2.20
2023-03-29T01:34:25.653Z,2.20
2023-03-29T01:35:39.131Z,2.63
2023-03-29T01:37:00.313Z,2.30
2023-03-29T01:38:09.580Z,2.20
2023-03-29T01:39:11.063Z,2.40
2023-03-29T01:40:12.675Z,2.33
2023-03-29T01:41:14.410Z,2.30
2023-03-29T01:42:35.712Z,2.35
2023-03-29T01:43:59.072Z,2.45
2023-03-29T01:45:09.930Z,2.17
2023-03-29T01:46:37.393Z,2.33
2023-03-29T01:48:00.564Z,2.05
2023-03-29T01:49:15.676Z,2.10
2023-03-29T01:50:23.924Z,2.22
2023-03-29T01:51:42.408Z,2.10
2023-03-29T01:53:05.491Z,2.13
2023-03-29T01:54:16.615Z,2.08
2023-03-29T01:55:25.788Z,2.63
2023-03-29T01:57:33.001Z,2.50
2023-03-29T01:58:39.686Z,2.70
2023-03-29T01:59:43.808Z,1.98
2023-03-29T02:00:46.302Z,2.33
2023-03-29T02:01:55.235Z,2.90
2023-03-29T02:03:00.667Z,2.83
2023-03-29T02:04:06.563Z,2.85
2023-03-29T02:05:10.045Z,3.00
2023-03-29T02:06:16.360Z,2.80
2023-03-29T02:07:24.445Z,2.60
2023-03-29T02:08:27.500Z,2.55
2023-03-29T02:10:33.923Z,2.65
2023-03-29T02:11:36.375Z,2.05
2023-03-29T02:12:38.545Z,2.20
2023-03-29T02:13:40.353Z,2.40
2023-03-29T02:14:42.128Z,2.33
2023-03-29T02:15:47.660Z,2.50
2023-03-29T02:16:49.989Z,2.50
2023-03-29T02:17:51.544Z,2.90
2023-03-29T02:18:56.288Z,2.40
2023-03-29T02:20:08.295Z,2.42
2023-03-29T02:21:14.909Z,2.30
2023-03-29T02:22:23.903Z,2.33
2023-03-29T02:23:34.329Z,2.30
2023-03-29T02:24:39.420Z,2.40
2023-03-29T02:25:43.295Z,2.25
2023-03-29T02:26:44.876Z,2.33
2023-03-29T02:27:46.426Z,2.30
2023-03-29T02:28:48.192Z,2.40
2023-03-29T02:29:49.665Z,3.03
2023-03-29T02:31:15.758Z,2.40
2023-03-29T02:32:28.706Z,2.25
2023-03-29T02:33:39.028Z,2.30
2023-03-29T02:34:49.298Z,2.28
2023-03-29T02:36:10.603Z,2.10
2023-03-29T02:37:15.741Z,2.45
2023-03-29T02:38:17.365Z,2.28
2023-03-29T02:39:21.294Z,2.20
2023-03-29T02:40:26.113Z,2.30
2023-03-29T02:41:28.603Z,2.20
2023-03-29T02:42:31.337Z,2.60
2023-03-29T02:43:35.497Z,2.47
2023-03-29T02:44:41.354Z,2.30
2023-03-29T02:45:44.640Z,2.40
2023-03-29T02:46:49.846Z,2.10
2023-03-29T02:48:03.305Z,2.20
2023-03-29T02:49:05.263Z,2.22
2023-03-29T02:50:08.588Z,2.72
2023-03-29T02:51:20.067Z,2.75
2023-03-29T02:52:27.452Z,4.82
2023-03-29T02:53:34.055Z,5.80
2023-03-29T02:54:37.973Z,7.00
2023-03-29T02:55:39.788Z,15.27
2023-03-29T02:56:53.514Z,12.25
2023-03-29T02:57:54.956Z,5.80
2023-03-29T02:58:56.382Z,2.83
2023-03-29T02:59:59.947Z,2.70
2023-03-29T03:01:02.764Z,2.58
2023-03-29T03:03:11.807Z,2.92
2023-03-29T03:04:13.467Z,2.72
2023-03-29T03:05:15.050Z,2.70
2023-03-29T03:06:16.818Z,4.45
2023-03-29T03:07:19.970Z,11.13
2023-03-29T03:08:21.383Z,12.55
2023-03-29T03:09:22.858Z,6.25
2023-03-29T03:10:24.536Z,4.93
2023-03-29T03:11:25.932Z,3.70
2023-03-29T03:12:27.403Z,3.35
2023-03-29T03:13:28.948Z,3.03
2023-03-29T03:14:30.442Z,2.60
2023-03-29T03:15:35.633Z,2.88
2023-03-29T03:16:37.342Z,2.78
2023-03-29T03:17:40.225Z,2.80
2023-03-29T03:18:42.010Z,2.83
2023-03-29T03:19:43.468Z,2.70
2023-03-29T03:20:54.956Z,2.50
2023-03-29T03:21:57.018Z,2.80
2023-03-29T03:22:58.544Z,2.53
2023-03-29T03:24:00.151Z,2.50
2023-03-29T03:25:01.577Z,2.45
2023-03-29T03:26:03.181Z,2.40
2023-03-29T03:27:04.912Z,2.35
2023-03-29T03:28:06.393Z,2.70
2023-03-29T03:29:07.811Z,2.83
2023-03-29T03:30:10.106Z,2.72
2023-03-29T03:31:14.313Z,2.67
2023-03-29T03:32:16.262Z,2.42
2023-03-29T03:33:18.849Z,2.40
2023-03-29T03:34:20.435Z,2.70
2023-03-29T03:35:22.706Z,2.70
2023-03-29T03:36:26.421Z,2.35
2023-03-29T03:37:27.873Z,2.70
2023-03-29T03:38:29.828Z,2.40
2023-03-29T03:39:31.469Z,2.38
2023-03-29T03:40:33.322Z,2.65
2023-03-29T03:41:35.124Z,2.33
2023-03-29T03:42:36.954Z,2.42
2023-03-29T03:43:38.536Z,2.20
2023-03-29T03:44:39.985Z,2.53
2023-03-29T03:45:42.942Z,2.40
2023-03-29T03:47:46.182Z,2.08
2023-03-29T03:48:48.062Z,2.17
2023-03-29T03:49:49.484Z,2.33
2023-03-29T03:50:53.308Z,2.78
2023-03-29T03:51:55.067Z,2.45
2023-03-29T03:52:56.460Z,2.40
2023-03-29T03:53:57.912Z,2.20
2023-03-29T03:54:59.314Z,2.30
2023-03-29T03:56:02.211Z,2.50
2023-03-29T03:57:04.035Z,2.40
2023-03-29T03:58:05.562Z,2.40
2023-03-29T03:59:07.246Z,2.15
2023-03-29T04:00:19.452Z,2.35
2023-03-29T04:01:21.007Z,2.35
2023-03-29T04:02:23.597Z,2.47
2023-03-29T04:03:25.165Z,2.33
2023-03-29T04:04:26.839Z,4.47
2023-03-29T04:05:28.387Z,3.75
2023-03-29T04:06:30.665Z,3.90
2023-03-29T04:07:32.700Z,4.13
2023-03-29T04:08:34.184Z,2.83
2023-03-29T04:09:35.625Z,2.45
2023-03-29T04:10:37.218Z,2.47
2023-03-29T04:11:38.966Z,2.60
2023-03-29T04:12:40.730Z,2.40
2023-03-29T04:13:42.246Z,2.40
2023-03-29T04:14:43.678Z,2.45
2023-03-29T04:15:46.120Z,2.20
2023-03-29T04:16:47.580Z,2.10
2023-03-29T04:17:49.086Z,2.35
2023-03-29T04:18:50.683Z,2.70
2023-03-29T04:19:52.252Z,2.17
2023-03-29T04:20:53.674Z,2.40
2023-03-29T04:21:55.418Z,2.70
2023-03-29T04:22:56.899Z,2.22
2023-03-29T04:23:58.313Z,2.45
2023-03-29T04:24:59.745Z,2.10
2023-03-29T04:26:01.201Z,2.10
2023-03-29T04:27:02.632Z,2.05
2023-03-29T04:28:04.327Z,2.25
2023-03-29T04:29:05.809Z,2.30
2023-03-29T04:30:08.112Z,2.50
2023-03-29T04:31:13.694Z,2.13
2023-03-29T04:32:15.190Z,2.35
2023-03-29T04:33:17.330Z,2.47
2023-03-29T04:34:18.800Z,2.25
2023-03-29T04:35:20.211Z,2.28
2023-03-29T04:36:21.724Z,2.50
2023-03-29T04:37:23.218Z,2.50
2023-03-29T04:38:24.657Z,2.13
2023-03-29T04:39:33.001Z,2.33
2023-03-29T04:40:34.425Z,2.13
2023-03-29T04:41:36.189Z,2.15
2023-03-29T04:42:37.663Z,2.38
2023-03-29T04:43:40.271Z,2.22
2023-03-29T04:44:43.609Z,2.25
2023-03-29T04:45:45.510Z,1.92
2023-03-29T04:46:47.366Z,2.35
2023-03-29T04:47:49.451Z,2.30
2023-03-29T04:48:51.324Z,2.40
2023-03-29T04:49:52.765Z,2.13
2023-03-29T04:50:54.536Z,2.00
2023-03-29T04:51:56.076Z,2.20
2023-03-29T04:53:00.159Z,2.28
2023-03-29T04:54:01.694Z,2.05
2023-03-29T04:55:04.876Z,2.13
2023-03-29T04:56:06.915Z,2.40
2023-03-29T04:57:08.722Z,2.25
2023-03-29T04:58:10.274Z,2.60
2023-03-29T04:59:11.701Z,6.70
2023-03-29T05:00:17.114Z,4.13
2023-03-29T05:01:18.657Z,2.42
2023-03-29T05:02:21.060Z,2.30
2023-03-29T05:03:22.593Z,2.30
2023-03-29T05:04:24.674Z,2.47
2023-03-29T05:05:27.060Z,2.60
2023-03-29T05:06:29.570Z,2.47
2023-03-29T05:07:31.029Z,2.60
2023-03-29T05:08:34.779Z,2.65
2023-03-29T05:09:36.298Z,2.70
2023-03-29T05:10:37.783Z,2.30
2023-03-29T05:11:39.235Z,2.38
2023-03-29T05:12:40.700Z,2.40
2023-03-29T05:13:42.707Z,2.22
2023-03-29T05:14:44.244Z,2.42
2023-03-29T05:15:45.982Z,2.63
2023-03-29T05:16:47.810Z,2.60
2023-03-29T05:17:49.569Z,2.67
2023-03-29T05:18:51.737Z,2.65
2023-03-29T05:19:54.278Z,2.33
2023-03-29T05:20:56.939Z,2.33
2023-03-29T05:21:59.243Z,3.00
2023-03-29T05:23:01.512Z,2.38
2023-03-29T05:24:03.115Z,2.50
2023-03-29T05:25:05.601Z,2.60
2023-03-29T05:26:08.254Z,2.40
2023-03-29T05:27:10.019Z,2.80
2023-03-29T05:28:11.448Z,2.78
2023-03-29T05:29:13.145Z,2.50
2023-03-29T05:30:15.345Z,2.40
2023-03-29T05:31:17.345Z,2.85
2023-03-29T05:32:18.866Z,2.70
2023-03-29T05:33:20.276Z,3.10
2023-03-29T05:34:21.753Z,2.40
2023-03-29T05:35:25.469Z,2.50
2023-03-29T05:36:26.911Z,2.65
2023-03-29T05:37:28.598Z,2.50
2023-03-29T05:39:50.707Z,2.70
2023-03-29T05:40:53.214Z,2.60
2023-03-29T05:41:55.282Z,2.72
2023-03-29T05:42:57.695Z,2.47
2023-03-29T05:43:59.270Z,2.70
2023-03-29T05:45:00.792Z,2.70
2023-03-29T05:46:02.556Z,2.70
2023-03-29T05:47:04.012Z,3.25
2023-03-29T05:48:05.711Z,2.75
2023-03-29T05:49:07.189Z,2.65
2023-03-29T05:50:10.299Z,2.70
2023-03-29T05:51:11.791Z,2.97
2023-03-29T05:52:14.445Z,2.90
2023-03-29T05:53:16.889Z,2.70
2023-03-29T05:54:18.313Z,2.90
2023-03-29T05:55:19.735Z,2.50
2023-03-29T05:56:22.427Z,2.53
2023-03-29T05:57:23.976Z,2.60
2023-03-29T05:58:26.698Z,2.60
2023-03-29T05:59:29.642Z,2.50
2023-03-29T06:00:34.619Z,2.80
2023-03-29T06:01:36.695Z,2.58
2023-03-29T06:02:38.148Z,2.95
2023-03-29T06:03:39.776Z,2.60
2023-03-29T06:04:41.720Z,2.90
2023-03-29T06:05:43.169Z,2.67
2023-03-29T06:06:44.556Z,3.15
2023-03-29T06:07:48.661Z,2.78
2023-03-29T06:08:50.644Z,2.78
2023-03-29T06:09:52.056Z,2.83
2023-03-29T06:11:06.130Z,2.80
2023-03-29T06:12:08.438Z,2.72
2023-03-29T06:13:09.866Z,2.55
2023-03-29T06:14:11.306Z,2.70
2023-03-29T06:15:14.075Z,2.78
2023-03-29T06:16:16.521Z,2.75
2023-03-29T06:17:18.917Z,2.92
2023-03-29T06:18:20.637Z,3.00
2023-03-29T06:19:22.716Z,3.00
2023-03-29T06:20:24.103Z,2.70
2023-03-29T06:21:27.207Z,2.80
2023-03-29T06:22:28.660Z,3.00
2023-03-29T06:23:30.708Z,2.70
2023-03-29T06:24:32.263Z,3.13
2023-03-29T06:25:34.223Z,3.00
2023-03-29T06:26:35.702Z,3.10
2023-03-29T06:27:37.320Z,2.85
2023-03-29T06:28:38.838Z,2.75
2023-03-29T06:29:40.352Z,3.13
2023-03-29T06:30:42.059Z,2.85
2023-03-29T06:31:43.604Z,3.10
2023-03-29T06:32:45.320Z,2.90
2023-03-29T06:33:47.187Z,3.20
2023-03-29T06:34:48.669Z,2.78
2023-03-29T06:35:50.160Z,2.90
2023-03-29T06:36:51.697Z,3.10
2023-03-29T06:37:54.377Z,3.20
2023-03-29T06:38:56.084Z,2.85
2023-03-29T06:39:57.979Z,3.00
2023-03-29T06:41:08.096Z,3.05
2023-03-29T06:42:20.226Z,3.25
2023-03-29T06:43:22.807Z,2.80
2023-03-29T06:44:25.550Z,2.80
2023-03-29T06:45:29.332Z,3.15
2023-03-29T06:46:30.923Z,3.00
2023-03-29T06:47:32.897Z,2.70
2023-03-29T06:48:34.541Z,2.90
2023-03-29T06:49:35.995Z,2.80
2023-03-29T06:50:37.467Z,3.10
2023-03-29T06:51:40.176Z,3.35
2023-03-29T06:52:41.859Z,2.72
2023-03-29T06:53:43.267Z,2.85
2023-03-29T06:54:44.731Z,3.10
2023-03-29T06:55:46.480Z,3.03
2023-03-29T06:56:48.964Z,3.10
2023-03-29T06:57:50.654Z,3.13
2023-03-29T06:58:52.059Z,3.13
2023-03-29T06:59:53.898Z,3.40
2023-03-29T07:01:01.260Z,3.35
2023-03-29T07:02:02.862Z,2.80
2023-03-29T07:03:06.882Z,3.00
2023-03-29T07:04:09.402Z,3.47
2023-03-29T07:05:13.548Z,3.05
2023-03-29T07:06:17.806Z,3.60
2023-03-29T07:07:22.791Z,3.70
2023-03-29T07:08:30.983Z,3.15
2023-03-29T07:09:33.446Z,3.30
2023-03-29T07:10:41.524Z,3.10
2023-03-29T07:11:43.472Z,3.13
2023-03-29T07:12:46.253Z,3.28
2023-03-29T07:13:49.143Z,3.60
2023-03-29T07:15:52.807Z,3.30
2023-03-29T07:16:55.571Z,3.20
2023-03-29T07:17:58.069Z,2.92
2023-03-29T07:18:59.602Z,3.10
2023-03-29T07:20:01.069Z,3.83
2023-03-29T07:21:03.281Z,3.47
2023-03-29T07:22:04.801Z,3.22
2023-03-29T07:23:08.076Z,3.22
2023-03-29T07:24:10.173Z,3.15
2023-03-29T07:25:12.326Z,3.13
2023-03-29T07:26:14.380Z,3.20
2023-03-29T07:27:30.291Z,3.30
2023-03-29T07:28:31.800Z,3.45
2023-03-29T07:29:33.393Z,3.10
2023-03-29T07:30:34.822Z,3.15
2023-03-29T07:31:38.634Z,3.13
2023-03-29T07:32:41.683Z,3.22
2023-03-29T07:33:44.239Z,3.03
2023-03-29T07:34:47.971Z,3.20
2023-03-29T07:35:49.782Z,3.30
2023-03-29T07:36:51.639Z,3.13
2023-03-29T07:37:54.941Z,3.30
2023-03-29T07:39:01.787Z,3.00
2023-03-29T07:40:09.328Z,3.15
2023-03-29T07:41:11.280Z,3.47
2023-03-29T07:42:12.742Z,3.00
2023-03-29T07:43:14.134Z,2.97
2023-03-29T07:44:18.390Z,3.55
2023-03-29T07:45:26.743Z,3.33
2023-03-29T07:46:29.937Z,3.17
2023-03-29T07:47:31.906Z,3.63
2023-03-29T07:48:33.847Z,3.33
2023-03-29T07:49:35.429Z,3.03
2023-03-29T07:50:37.212Z,3.25
2023-03-29T07:51:38.720Z,2.97
2023-03-29T07:52:40.954Z,3.72
2023-03-29T07:53:42.439Z,3.45
2023-03-29T07:54:43.865Z,3.40
2023-03-29T07:55:49.512Z,3.22
2023-03-29T07:56:51.027Z,3.53
2023-03-29T07:57:53.565Z,3.50
2023-03-29T07:58:55.127Z,3.30
2023-03-29T07:59:56.799Z,4.07
2023-03-29T08:01:00.830Z,3.83
2023-03-29T08:02:02.532Z,3.70
2023-03-29T08:03:04.296Z,3.60
2023-03-29T08:04:06.132Z,3.40
2023-03-29T08:05:08.434Z,3.42
2023-03-29T08:06:10.078Z,3.40
2023-03-29T08:07:12.554Z,3.20
2023-03-29T08:08:14.224Z,3.42
2023-03-29T08:09:15.726Z,3.15
2023-03-29T08:10:20.026Z,3.35
2023-03-29T08:11:21.630Z,3.20
2023-03-29T08:12:24.986Z,3.30
2023-03-29T08:13:26.641Z,3.20
2023-03-29T08:14:28.767Z,3.33
2023-03-29T08:15:30.959Z,2.95
2023-03-29T08:16:32.800Z,3.35
2023-03-29T08:17:35.269Z,3.20
2023-03-29T08:18:36.785Z,2.90
2023-03-29T08:19:38.218Z,2.85
2023-03-29T08:20:39.971Z,2.70
2023-03-29T08:21:41.403Z,3.05
2023-03-29T08:22:43.252Z,2.88
2023-03-29T08:23:44.748Z,3.13
2023-03-29T08:24:46.412Z,3.10
2023-03-29T08:25:48.185Z,3.15
2023-03-29T08:26:49.559Z,3.08
2023-03-29T08:27:50.999Z,2.90
2023-03-29T08:28:52.386Z,3.10
2023-03-29T08:29:53.809Z,2.80
2023-03-29T08:30:55.260Z,3.10
2023-03-29T08:31:58.266Z,2.55
2023-03-29T08:34:01.129Z,2.70
2023-03-29T08:35:05.110Z,3.05
2023-03-29T08:36:07.157Z,2.70
2023-03-29T08:37:09.791Z,2.72
2023-03-29T08:38:12.500Z,3.13
2023-03-29T08:39:13.976Z,2.60
2023-03-29T08:40:21.797Z,3.40
2023-03-29T08:41:53.430Z,3.05
2023-03-29T08:43:20.971Z,3.05
2023-03-29T08:45:07.763Z,3.20
2023-03-29T08:46:16.751Z,3.03
2023-03-29T08:48:42.413Z,3.40
2023-03-29T08:49:49.219Z,2.83
2023-03-29T08:50:52.850Z,3.10
2023-03-29T08:52:02.538Z,3.00
2023-03-29T08:53:15.393Z,2.92
2023-03-29T08:54:21.811Z,3.35
2023-03-29T08:55:44.802Z,3.25
2023-03-29T08:56:47.796Z,3.00
2023-03-29T08:57:51.667Z,3.08
2023-03-29T08:58:56.714Z,2.85
2023-03-29T09:00:05.531Z,3.10
2023-03-29T09:01:11.359Z,2.67
2023-03-29T09:02:19.034Z,2.63
2023-03-29T09:03:42.531Z,3.13
2023-03-29T09:04:45.044Z,2.85
2023-03-29T09:05:51.645Z,2.90
2023-03-29T09:06:54.219Z,3.10
2023-03-29T09:07:56.084Z,2.78
2023-03-29T09:08:57.976Z,3.08
2023-03-29T09:09:59.616Z,2.60
2023-03-29T09:11:27.830Z,2.75
2023-03-29T09:13:12.520Z,3.13
2023-03-29T09:14:38.219Z,2.90
2023-03-29T09:16:04.099Z,2.95
2023-03-29T09:17:22.327Z,2.83
2023-03-29T09:18:36.987Z,3.13
2023-03-29T09:19:56.660Z,2.88
2023-03-29T09:21:16.916Z,2.70
2023-03-29T09:22:24.263Z,2.85
2023-03-29T09:23:41.911Z,2.83
2023-03-29T09:24:58.336Z,2.55
2023-03-29T09:26:10.250Z,2.97
2023-03-29T09:27:26.534Z,2.95
2023-03-29T09:28:53.124Z,3.03
2023-03-29T09:30:00.286Z,3.10
2023-03-29T09:31:26.206Z,2.72
2023-03-29T09:32:46.959Z,2.90
2023-03-29T09:34:15.857Z,2.95
2023-03-29T09:35:27.607Z,2.60
2023-03-29T09:36:46.359Z,2.90
2023-03-29T09:37:51.249Z,2.47
2023-03-29T09:38:54.652Z,2.72
2023-03-29T09:39:57.662Z,2.63
2023-03-29T09:42:09.319Z,2.67
2023-03-29T09:43:15.369Z,2.42
2023-03-29T09:44:31.856Z,3.10
2023-03-29T09:45:37.068Z,2.40
2023-03-29T09:46:43.993Z,2.53
2023-03-29T09:47:59.143Z,2.70
2023-03-29T09:50:23.079Z,2.70
2023-03-29T09:51:31.739Z,2.22
2023-03-29T09:52:33.365Z,2.30
2023-03-29T09:53:34.935Z,2.30
2023-03-29T09:54:39.691Z,2.35
2023-03-29T09:55:44.012Z,2.25
2023-03-29T09:56:45.861Z,2.00
2023-03-29T09:57:47.370Z,2.50
2023-03-29T09:58:48.912Z,2.33
2023-03-29T09:59:52.475Z,2.22
2023-03-29T10:00:59.662Z,1.88
2023-03-29T10:02:09.452Z,1.73
2023-03-29T10:03:22.096Z,2.03
2023-03-29T10:04:26.113Z,1.73
2023-03-29T10:05:32.007Z,2.00
2023-03-29T10:06:34.331Z,1.88
2023-03-29T10:07:47.109Z,1.90
2023-03-29T10:08:59.075Z,1.95
2023-03-29T10:10:01.063Z,1.92
2023-03-29T10:11:23.707Z,1.98
2023-03-29T10:12:25.385Z,1.60
2023-03-29T10:13:33.088Z,2.05
2023-03-29T10:14:48.174Z,1.60
2023-03-29T10:16:07.958Z,1.77
2023-03-29T10:17:21.821Z,1.85
2023-03-29T10:18:25.044Z,1.88
2023-03-29T10:19:31.191Z,1.88
2023-03-29T10:20:36.878Z,1.98
2023-03-29T10:21:38.338Z,1.90
2023-03-29T10:22:48.673Z,2.15
2023-03-29T10:23:58.284Z,2.10
2023-03-29T10:24:59.778Z,1.73
2023-03-29T10:26:04.376Z,1.85
2023-03-29T10:27:10.564Z,1.90
2023-03-29T10:28:22.712Z,2.10
2023-03-29T10:29:26.151Z,1.60
2023-03-29T10:30:28.161Z,1.92
2023-03-29T10:31:33.745Z,1.95
2023-03-29T10:32:36.966Z,1.75
2023-03-29T10:33:38.466Z,1.88
2023-03-29T10:34:40.008Z,1.70
2023-03-29T10:35:42.012Z,1.98
2023-03-29T10:36:52.183Z,2.08
2023-03-29T10:37:56.418Z,2.15
2023-03-29T10:39:01.698Z,2.03
2023-03-29T10:40:06.517Z,2.00
2023-03-29T10:42:17.275Z,2.00
2023-03-29T10:43:24.593Z,2.15
2023-03-29T10:44:33.315Z,2.30
2023-03-29T10:45:35.885Z,1.98
2023-03-29T10:46:43.142Z,2.03
2023-03-29T10:47:47.852Z,2.00
2023-03-29T10:48:57.748Z,2.22
2023-03-29T10:49:59.302Z,1.90
2023-03-29T10:51:02.681Z,2.13
2023-03-29T10:52:07.281Z,1.83
2023-03-29T10:53:22.706Z,2.15
2023-03-29T10:54:24.507Z,1.95
2023-03-29T10:55:45.258Z,2.03
2023-03-29T10:56:52.533Z,2.20
2023-03-29T10:58:17.691Z,2.10
2023-03-29T10:59:36.655Z,2.03
2023-03-29T11:00:52.201Z,1.88
2023-03-29T11:02:15.419Z,1.92
2023-03-29T11:03:28.479Z,2.15
2023-03-29T11:04:48.266Z,1.88
2023-03-29T11:06:14.012Z,1.70
2023-03-29T11:07:33.423Z,1.60
2023-03-29T11:08:43.606Z,1.70
2023-03-29T11:10:28.955Z,1.50
2023-03-29T11:12:01.244Z,1.65
2023-03-29T11:13:27.614Z,1.80
2023-03-29T11:14:52.362Z,1.40
2023-03-29T11:16:16.536Z,1.83
2023-03-29T11:17:51.868Z,1.50
2023-03-29T11:19:13.711Z,1.40
2023-03-29T11:20:34.019Z,1.50
2023-03-29T11:22:09.377Z,1.67
2023-03-29T11:23:31.036Z,1.60
2023-03-29T11:24:54.122Z,1.73
2023-03-29T11:26:08.357Z,1.60
2023-03-29T11:27:19.531Z,1.40
2023-03-29T11:28:36.658Z,1.80
2023-03-29T11:29:45.905Z,1.70
2023-03-29T11:31:09.929Z,1.70
2023-03-29T11:33:08.627Z,1.73
2023-03-29T11:34:31.696Z,1.80
2023-03-29T11:35:52.554Z,1.70
2023-03-29T11:36:59.345Z,1.88
2023-03-29T11:38:25.006Z,1.60
2023-03-29T11:39:41.986Z,1.70
2023-03-29T11:41:09.341Z,1.65
2023-03-29T11:42:20.487Z,1.55
2023-03-29T11:43:31.155Z,1.65
2023-03-29T11:44:35.428Z,1.63
2023-03-29T11:45:46.272Z,1.52
2023-03-29T11:46:47.861Z,1.40
2023-03-29T11:47:51.489Z,1.60
2023-03-29T11:49:02.589Z,1.67
2023-03-29T11:50:25.716Z,1.70
2023-03-29T11:51:34.528Z,1.50
2023-03-29T11:52:53.301Z,1.63
2023-03-29T11:54:16.490Z,1.65
2023-03-29T11:55:26.340Z,1.92
2023-03-29T11:57:03.078Z,1.67
2023-03-29T11:58:15.638Z,1.80
2023-03-29T11:59:23.444Z,1.48
2023-03-29T12:00:30.621Z,1.73
2023-03-29T12:01:38.561Z,1.65
2023-03-29T12:02:46.612Z,1.73
2023-03-29T12:03:59.176Z,1.60
2023-03-29T12:05:10.177Z,1.63
2023-03-29T12:06:27.459Z,2.08
2023-03-29T12:07:35.868Z,1.70
2023-03-29T12:08:44.939Z,1.63
2023-03-29T12:11:13.928Z,2.15
2023-03-29T12:12:25.032Z,1.77
2023-03-29T12:13:49.030Z,1.63
2023-03-29T12:15:06.939Z,1.52
2023-03-29T12:16:19.518Z,1.60
2023-03-29T12:17:28.256Z,1.80
2023-03-29T12:18:41.122Z,1.63
2023-03-29T12:20:02.334Z,1.70
2023-03-29T12:21:10.939Z,1.73
2023-03-29T12:22:12.372Z,1.60
2023-03-29T12:23:16.208Z,1.40
2023-03-29T12:24:19.502Z,1.80
2023-03-29T12:25:30.889Z,1.90
2023-03-29T12:26:43.763Z,2.05
2023-03-29T12:27:57.673Z,1.80
2023-03-29T12:29:32.736Z,2.22
2023-03-29T12:31:02.321Z,2.00
2023-03-29T12:32:49.495Z,1.80
2023-03-29T12:34:08.844Z,1.52
2023-03-29T12:35:27.952Z,1.50
2023-03-29T12:36:48.000Z,1.63
2023-03-29T12:38:19.590Z,1.55
2023-03-29T12:39:22.954Z,1.40
2023-03-29T12:40:27.788Z,1.60
2023-03-29T12:41:37.249Z,1.90
2023-03-29T12:42:47.947Z,1.65
2023-03-29T12:43:50.816Z,2.08
2023-03-29T12:46:09.323Z,1.88
2023-03-29T12:47:21.419Z,1.92
2023-03-29T12:48:30.169Z,1.92
2023-03-29T12:49:39.353Z,1.83
2023-03-29T12:51:09.309Z,1.77
2023-03-29T12:52:36.937Z,2.08
2023-03-29T12:53:47.678Z,1.73
2023-03-29T12:55:01.797Z,1.83
2023-03-29T12:56:04.077Z,2.00
2023-03-29T12:57:41.392Z,2.03
2023-03-29T12:58:45.419Z,1.70
2023-03-29T12:59:49.455Z,1.70
2023-03-29T13:01:23.748Z,1.70
2023-03-29T13:02:33.222Z,1.80
2023-03-29T13:03:45.250Z,1.60
2023-03-29T13:04:56.701Z,1.60
2023-03-29T13:06:05.207Z,1.85
2023-03-29T13:07:16.741Z,1.73
2023-03-29T13:08:39.152Z,1.52
2023-03-29T13:09:55.492Z,1.77
2023-03-29T13:10:57.087Z,1.63
2023-03-29T13:12:09.533Z,2.78
2023-03-29T13:13:17.339Z,1.50
2023-03-29T13:14:21.790Z,1.42
2023-03-29T13:15:26.960Z,1.70
2023-03-29T13:16:32.839Z,1.65
2023-03-29T13:17:39.443Z,1.55
2023-03-29T13:19:23.178Z,1.77
2023-03-29T13:20:47.951Z,1.35
2023-03-29T13:22:04.715Z,1.40
2023-03-29T13:23:36.953Z,1.63
2023-03-29T13:24:51.361Z,1.55
2023-03-29T13:26:12.179Z,1.63
2023-03-29T13:27:42.266Z,1.42
2023-03-29T13:29:29.713Z,1.55
2023-03-29T13:30:41.565Z,1.40
2023-03-29T13:32:00.849Z,1.42
2023-03-29T13:33:39.724Z,1.55
2023-03-29T13:35:28.913Z,1.60
2023-03-29T13:36:39.140Z,1.40
2023-03-29T13:37:55.736Z,1.60
2023-03-29T13:39:02.769Z,1.35
2023-03-29T13:40:30.453Z,1.40
2023-03-29T13:41:33.549Z,1.50
2023-03-29T13:42:35.327Z,1.50
2023-03-29T13:43:45.666Z,1.48
2023-03-29T13:44:49.174Z,1.40
2023-03-29T13:45:56.516Z,1.50
2023-03-29T13:47:14.297Z,1.55
2023-03-29T13:48:28.315Z,1.63
2023-03-29T13:49:33.873Z,1.30
2023-03-29T13:50:38.947Z,1.30
2023-03-29T13:51:44.965Z,1.50
2023-03-29T13:52:57.341Z,1.50
2023-03-29T13:54:17.232Z,1.38
2023-03-29T13:55:26.169Z,1.40
2023-03-29T13:57:03.146Z,1.55
2023-03-29T13:58:12.236Z,1.48
2023-03-29T14:00:22.089Z,1.70
2023-03-29T14:01:48.527Z,2.30
2023-03-29T14:02:54.994Z,1.42
2023-03-29T14:03:58.832Z,1.40
2023-03-29T14:05:02.136Z,1.83
2023-03-29T14:06:04.914Z,1.67
2023-03-29T14:07:08.255Z,1.67
2023-03-29T14:08:17.163Z,1.50
2023-03-29T14:09:21.735Z,1.52
2023-03-29T14:10:27.472Z,1.73
2023-03-29T14:11:31.110Z,1.70
2023-03-29T14:12:39.536Z,1.73
2023-03-29T14:13:43.289Z,1.75
2023-03-29T14:14:58.230Z,1.98
2023-03-29T14:16:07.026Z,1.60
2023-03-29T14:17:19.188Z,1.73
2023-03-29T14:18:25.860Z,1.73
2023-03-29T14:19:36.398Z,1.85
2023-03-29T14:20:44.023Z,1.80
2023-03-29T14:21:45.977Z,1.80
2023-03-29T14:22:47.708Z,2.20
2023-03-29T14:23:57.917Z,2.08
2023-03-29T14:25:06.005Z,1.83
2023-03-29T14:26:17.264Z,1.70
2023-03-29T14:27:21.381Z,2.13
2023-03-29T14:28:23.244Z,1.80
2023-03-29T14:29:30.995Z,1.73
2023-03-29T14:30:32.702Z,2.00
2023-03-29T14:31:37.068Z,2.50
2023-03-29T14:32:39.713Z,2.00
2023-03-29T14:33:41.913Z,1.92
2023-03-29T14:34:44.440Z,2.45
2023-03-29T14:35:46.286Z,1.63
2023-03-29T14:36:49.386Z,2.20
2023-03-29T14:37:51.447Z,1.90
2023-03-29T14:38:58.079Z,2.03
2023-03-29T14:40:04.015Z,1.80
2023-03-29T14:41:07.854Z,2.05
2023-03-29T14:42:15.768Z,2.05
2023-03-29T14:43:22.493Z,1.70
2023-03-29T14:44:28.637Z,2.22
2023-03-29T14:45:30.214Z,1.80
2023-03-29T14:46:33.846Z,1.92
2023-03-29T14:47:36.434Z,1.83
2023-03-29T14:48:38.821Z,1.98
2023-03-29T14:49:40.381Z,2.00
2023-03-29T14:50:43.229Z,2.28
2023-03-29T14:51:46.345Z,2.08
2023-03-29T14:52:51.716Z,2.10
2023-03-29T14:53:54.225Z,1.98
2023-03-29T14:54:59.306Z,1.98
2023-03-29T14:56:02.153Z,2.15
2023-03-29T14:57:07.161Z,1.77
2023-03-29T14:58:30.994Z,1.90
2023-03-29T14:59:35.278Z,1.95
2023-03-29T15:00:44.293Z,1.92
2023-03-29T15:01:46.192Z,1.70
2023-03-29T15:03:01.698Z,1.90
2023-03-29T15:04:09.158Z,1.88
2023-03-29T15:05:31.658Z,1.90
2023-03-29T15:06:39.265Z,2.20
2023-03-29T15:07:43.165Z,2.38
2023-03-29T15:08:54.412Z,2.00
2023-03-29T15:10:06.559Z,1.98
2023-03-29T15:11:15.617Z,2.20
2023-03-29T15:12:17.665Z,1.90
2023-03-29T15:13:24.307Z,2.00